Time;durP1;ratioP1;P1;durP2;ratioP2;P2;SDS_P1;SDS_P2;PMS_P1;PMS_P2;Temp;Humidity;BMP_temperature;BMP_pressure;BME280_temperature;BME280_humidity;BME280_pressure;Samples;Min_cycle;Max_cycle;Signal;HPM_P1;HPM_P2
2023/06/13 00:00:45;;;;;;;4.85;3.50;;;18.80;65.60;;;;;;5012670;28;20022;-75
2023/06/13 00:03:14;;;;;;;4.88;3.38;;;18.70;66.00;;;;;;5002919;28;20489;-75
2023/06/13 00:05:45;;;;;;;4.97;3.40;;;18.70;66.00;;;;;;5014037;28;20028;-73
2023/06/13 00:08:17;;;;;;;4.60;3.10;;;18.70;66.00;;;;;;5018669;28;20022;-72
2023/06/13 00:10:47;;;;;;;5.00;3.33;;;18.70;66.20;;;;;;5016071;28;20022;-73
2023/06/13 00:13:14;;;;;;;6.38;3.20;;;18.70;66.10;;;;;;5012062;28;20194;-73
2023/06/13 00:15:50;;;;;;;5.72;3.20;;;18.70;66.40;;;;;;5004023;28;20147;-72
2023/06/13 00:18:19;;;;;;;7.60;3.70;;;18.60;66.30;;;;;;5016339;28;20097;-73
2023/06/13 00:20:45;;;;;;;5.63;3.67;;;18.60;66.50;;;;;;5009144;28;20025;-73
2023/06/13 00:23:12;;;;;;;8.43;4.38;;;18.50;66.40;;;;;;5010520;28;20030;-73
2023/06/13 00:25:38;;;;;;;4.35;3.33;;;18.50;66.50;;;;;;5018614;28;20104;-73
2023/06/13 00:28:04;;;;;;;7.75;3.83;;;18.50;66.60;;;;;;5008727;28;20061;-73
2023/06/13 00:30:33;;;;;;;6.15;3.47;;;18.50;66.70;;;;;;5011702;28;20528;-73
2023/06/13 00:32:59;;;;;;;7.15;3.33;;;18.40;66.80;;;;;;5007758;28;20017;-73
2023/06/13 00:35:25;;;;;;;5.25;3.30;;;18.40;66.90;;;;;;5010867;28;20117;-73
2023/06/13 00:37:54;;;;;;;6.35;3.28;;;18.40;67.10;;;;;;5008616;28;20109;-73
2023/06/13 00:40:21;;;;;;;3.90;2.83;;;18.30;67.20;;;;;;5013386;28;20022;-73
2023/06/13 00:42:53;;;;;;;6.82;3.42;;;18.30;67.40;;;;;;5020560;28;20029;-73
2023/06/13 00:45:28;;;;;;;5.07;3.45;;;18.30;67.60;;;;;;5007699;28;20096;-72
2023/06/13 00:48:05;;;;;;;5.57;3.15;;;18.20;67.60;;;;;;5008838;28;20038;-74
2023/06/13 00:50:49;;;;;;;9.75;3.47;;;18.20;67.90;;;;;;5011212;28;20058;-73
2023/06/13 00:53:19;;;;;;;5.90;2.70;;;18.20;67.80;;;;;;5007790;28;20366;-72
2023/06/13 00:55:46;;;;;;;5.40;3.35;;;18.10;68.00;;;;;;5012168;28;20109;-72
2023/06/13 00:58:13;;;;;;;5.95;3.15;;;18.10;68.50;;;;;;5017536;28;20022;-73
2023/06/13 01:00:40;;;;;;;5.78;3.50;;;18.00;68.40;;;;;;5017493;28;20039;-73
2023/06/13 01:03:14;;;;;;;5.63;3.58;;;18.00;68.70;;;;;;5011057;28;20026;-73
2023/06/13 01:05:44;;;;;;;4.50;3.10;;;18.00;68.80;;;;;;5023352;28;20030;-73
2023/06/13 01:08:22;;;;;;;6.63;3.33;;;17.90;68.90;;;;;;5022917;28;20026;-75
2023/06/13 01:10:59;;;;;;;5.53;3.17;;;17.90;69.10;;;;;;5012802;28;20041;-75
2023/06/13 01:13:35;;;;;;;5.53;3.03;;;17.90;69.40;;;;;;5005888;28;20034;-75
2023/06/13 01:16:25;;;;;;;6.43;3.25;;;17.80;69.40;;;;;;5002441;28;20617;-75
2023/06/13 01:18:54;;;;;;;7.35;3.22;;;17.80;69.50;;;;;;5008230;28;20030;-75
2023/06/13 01:21:24;;;;;;;4.63;3.30;;;17.70;69.80;;;;;;5005613;28;20163;-75
2023/06/13 01:24:12;;;;;;;5.85;3.70;;;17.60;69.90;;;;;;5010162;28;20168;-74
2023/06/13 01:26:43;;;;;;;6.97;3.15;;;17.60;70.10;;;;;;5004884;28;20489;-74
2023/06/13 01:29:10;;;;;;;5.82;3.50;;;17.60;70.20;;;;;;5010187;28;20113;-74
2023/06/13 01:31:37;;;;;;;6.05;3.20;;;17.50;70.30;;;;;;5008463;28;20076;-74
2023/06/13 01:34:03;;;;;;;8.38;3.42;;;17.50;70.50;;;;;;5008160;28;20042;-74
2023/06/13 01:36:29;;;;;;;10.50;4.20;;;17.50;70.50;;;;;;5008835;28;20025;-74
2023/06/13 01:38:55;;;;;;;7.28;3.15;;;17.40;70.70;;;;;;5007555;28;20096;-75
2023/06/13 01:41:21;;;;;;;6.20;3.55;;;17.40;70.90;;;;;;5023234;28;20073;-75
2023/06/13 01:43:46;;;;;;;5.03;3.05;;;17.40;71.10;;;;;;5015647;28;20064;-75
2023/06/13 01:46:40;;;;;;;5.40;3.63;;;17.30;71.00;;;;;;5014489;28;20038;-75
2023/06/13 01:49:11;;;;;;;8.57;3.72;;;17.30;71.20;;;;;;5011610;28;20021;-75
2023/06/13 01:51:59;;;;;;;6.38;3.30;;;17.30;71.40;;;;;;5020081;28;20076;-75
2023/06/13 01:54:28;;;;;;;6.65;3.25;;;17.30;71.40;;;;;;5031072;28;20021;-76
2023/06/13 01:57:00;;;;;;;4.65;3.20;;;17.20;71.30;;;;;;4994716;28;20014;-75
2023/06/13 01:59:28;;;;;;;7.40;3.58;;;17.20;71.50;;;;;;5010272;28;20030;-76
2023/06/13 02:01:56;;;;;;;7.25;3.53;;;17.20;71.50;;;;;;4995546;28;20410;-76
2023/06/13 02:04:21;;;;;;;4.38;3.15;;;17.20;71.60;;;;;;4995287;28;20105;-77
2023/06/13 02:06:47;;;;;;;7.80;3.30;;;17.20;71.60;;;;;;5009983;28;20121;-77
2023/06/13 02:09:12;;;;;;;8.30;4.25;;;17.10;71.70;;;;;;5009846;28;20061;-77
2023/06/13 02:11:38;;;;;;;5.90;2.83;;;17.10;71.80;;;;;;5009536;28;20480;-75
2023/06/13 02:14:06;;;;;;;5.72;3.17;;;17.10;72.00;;;;;;4993406;28;20029;-77
2023/06/13 02:16:32;;;;;;;3.72;2.78;;;17.00;72.00;;;;;;4995504;28;20018;-77
2023/06/13 02:19:00;;;;;;;6.60;3.03;;;17.00;72.10;;;;;;4994915;28;20034;-77
2023/06/13 02:21:29;;;;;;;4.65;3.15;;;17.00;72.10;;;;;;4994680;28;20035;-77
2023/06/13 02:23:54;;;;;;;7.00;3.80;;;17.00;72.20;;;;;;5015888;28;20374;-77
2023/06/13 02:26:20;;;;;;;5.60;3.30;;;17.00;72.20;;;;;;5015660;28;20068;-77
2023/06/13 02:28:47;;;;;;;6.30;4.00;;;16.90;72.30;;;;;;5017044;28;20209;-77
2023/06/13 02:31:13;;;;;;;5.35;3.13;;;16.90;72.30;;;;;;5021651;28;20018;-76
2023/06/13 02:33:39;;;;;;;5.05;3.05;;;16.90;72.30;;;;;;5032377;28;20022;-76
2023/06/13 02:36:07;;;;;;;5.35;3.00;;;16.90;72.40;;;;;;5023548;28;20022;-75
2023/06/13 02:38:33;;;;;;;5.93;3.08;;;16.90;72.50;;;;;;5014874;28;20113;-75
2023/06/13 02:40:59;;;;;;;4.35;2.97;;;16.80;72.50;;;;;;5018704;28;20106;-75
2023/06/13 02:43:25;;;;;;;5.32;3.50;;;16.80;72.60;;;;;;5023192;28;20022;-75
2023/06/13 02:45:51;;;;;;;7.15;3.30;;;16.80;72.60;;;;;;5014168;28;20477;-76
2023/06/13 02:48:17;;;;;;;6.63;3.28;;;16.70;72.50;;;;;;5013958;28;20026;-76
2023/06/13 02:50:43;;;;;;;5.75;3.05;;;16.70;72.60;;;;;;5007906;28;20026;-76
2023/06/13 02:53:08;;;;;;;5.85;2.95;;;16.70;72.60;;;;;;5013700;28;20022;-75
2023/06/13 02:55:34;;;;;;;5.88;3.33;;;16.70;72.80;;;;;;5018304;28;20054;-76
2023/06/13 02:58:00;;;;;;;8.10;2.90;;;16.60;73.00;;;;;;5033552;28;20126;-76
2023/06/13 03:00:25;;;;;;;6.15;3.25;;;16.60;72.90;;;;;;5025783;28;20100;-76
2023/06/13 03:02:51;;;;;;;8.63;4.03;;;16.60;72.90;;;;;;5002430;28;20026;-76
2023/06/13 03:05:17;;;;;;;7.45;3.40;;;16.60;72.90;;;;;;4994159;28;20033;-76
2023/06/13 03:07:46;;;;;;;5.50;3.10;;;16.50;72.80;;;;;;4993301;28;20042;-75
2023/06/13 03:10:12;;;;;;;4.50;2.83;;;16.50;72.90;;;;;;4992193;28;20026;-75
2023/06/13 03:12:38;;;;;;;7.72;3.15;;;16.50;73.00;;;;;;4993865;28;20428;-76
2023/06/13 03:15:05;;;;;;;7.15;3.33;;;16.50;73.20;;;;;;4993484;28;20359;-75
2023/06/13 03:17:30;;;;;;;5.47;3.25;;;16.50;73.30;;;;;;5010795;28;20079;-75
2023/06/13 03:19:56;;;;;;;4.32;2.70;;;16.40;73.20;;;;;;5033141;28;20021;-75
2023/06/13 03:22:22;;;;;;;4.22;2.47;;;16.40;73.20;;;;;;5032778;28;20038;-75
2023/06/13 03:24:48;;;;;;;4.20;3.00;;;16.40;73.20;;;;;;5031580;28;20027;-75
2023/06/13 03:27:13;;;;;;;7.47;3.33;;;16.30;73.30;;;;;;5019154;28;20427;-76
2023/06/13 03:29:40;;;;;;;4.47;2.83;;;16.30;73.50;;;;;;5024947;28;20431;-74
2023/06/13 03:32:07;;;;;;;5.13;3.05;;;16.30;73.60;;;;;;5006830;28;20552;-76
2023/06/13 03:34:38;;;;;;;8.77;3.22;;;16.30;73.60;;;;;;5020992;28;20029;-74
2023/06/13 03:37:06;;;;;;;5.63;2.75;;;16.30;73.60;;;;;;5028475;28;20025;-75
2023/06/13 03:39:31;;;;;;;4.88;3.10;;;16.30;73.60;;;;;;5018448;28;20021;-76
2023/06/13 03:41:57;;;;;;;5.65;3.75;;;16.30;73.80;;;;;;5014492;28;20014;-76
2023/06/13 03:44:23;;;;;;;6.75;3.25;;;16.30;73.80;;;;;;5016261;28;20057;-75
2023/06/13 03:46:49;;;;;;;9.07;3.20;;;16.30;73.90;;;;;;5035712;28;20500;-76
2023/06/13 03:49:14;;;;;;;8.55;3.08;;;16.20;74.10;;;;;;5019266;28;20524;-75
2023/06/13 03:51:41;;;;;;;6.93;3.63;;;16.20;74.30;;;;;;5024243;28;20366;-76
2023/06/13 03:54:07;;;;;;;8.65;3.25;;;16.10;74.50;;;;;;5021383;28;20376;-75
2023/06/13 03:56:32;;;;;;;5.63;3.25;;;16.10;74.50;;;;;;5014363;28;20030;-75
2023/06/13 03:58:58;;;;;;;9.35;3.97;;;16.10;74.80;;;;;;5016194;28;20089;-76
2023/06/13 04:01:24;;;;;;;6.45;3.50;;;16.00;75.00;;;;;;5018346;28;20022;-76
2023/06/13 04:03:50;;;;;;;4.97;3.08;;;16.00;75.10;;;;;;5009138;28;20021;-75
2023/06/13 04:06:15;;;;;;;6.82;3.00;;;15.90;74.40;;;;;;5007218;28;20045;-75
2023/06/13 04:08:41;;;;;;;6.50;3.13;;;15.90;74.60;;;;;;5016743;28;20512;-76
2023/06/13 04:11:07;;;;;;;4.93;2.80;;;15.90;74.40;;;;;;5019494;28;20037;-74
2023/06/13 04:13:32;;;;;;;5.30;3.42;;;15.90;74.50;;;;;;5011652;28;20030;-76
2023/06/13 04:15:58;;;;;;;6.97;3.00;;;15.90;74.40;;;;;;5020566;28;20106;-76
2023/06/13 04:18:24;;;;;;;6.50;3.03;;;15.90;73.90;;;;;;5028109;28;20377;-76
2023/06/13 04:20:53;;;;;;;5.78;2.67;;;15.90;73.30;;;;;;5029879;28;20037;-76
2023/06/13 04:23:19;;;;;;;4.75;2.30;;;16.00;73.20;;;;;;5011964;28;20025;-76
2023/06/13 04:25:45;;;;;;;6.03;2.42;;;16.00;72.90;;;;;;5007520;28;20025;-76
2023/06/13 04:28:13;;;;;;;6.38;2.95;;;16.00;72.60;;;;;;5010993;28;20374;-76
2023/06/13 04:30:46;;;;;;;4.43;2.88;;;16.10;72.60;;;;;;5017535;28;20379;-77
2023/06/13 04:33:16;;;;;;;5.10;2.63;;;16.20;72.80;;;;;;5015358;28;20651;-77
2023/06/13 04:35:44;;;;;;;5.47;2.50;;;16.20;72.90;;;;;;5018154;28;20033;-76
2023/06/13 04:38:14;;;;;;;3.35;2.45;;;16.30;72.70;;;;;;5009009;28;20026;-76
2023/06/13 04:40:40;;;;;;;6.43;2.45;;;16.30;72.70;;;;;;5007877;28;20022;-76
2023/06/13 04:43:06;;;;;;;7.07;2.70;;;16.40;72.60;;;;;;5005026;28;20105;-76
2023/06/13 04:45:33;;;;;;;6.75;2.88;;;16.50;71.10;;;;;;5009953;28;20030;-76
2023/06/13 04:48:01;;;;;;;5.22;2.63;;;16.50;70.60;;;;;;5016291;28;20022;-74
2023/06/13 04:50:28;;;;;;;6.93;2.67;;;16.60;69.80;;;;;;5030159;28;20052;-75
2023/06/13 04:52:55;;;;;;;4.38;2.40;;;16.60;69.70;;;;;;5015536;28;20068;-76
2023/06/13 04:55:22;;;;;;;4.82;3.03;;;16.70;69.40;;;;;;5017679;28;20033;-76
2023/06/13 04:57:47;;;;;;;4.45;2.70;;;16.80;69.20;;;;;;5009182;28;20044;-76
2023/06/13 05:00:15;;;;;;;3.92;2.22;;;16.90;69.10;;;;;;5010710;28;20451;-75
2023/06/13 05:02:41;;;;;;;3.30;2.60;;;16.90;69.00;;;;;;5013658;28;20033;-76
2023/06/13 05:05:07;;;;;;;6.57;3.00;;;17.10;68.80;;;;;;5019393;28;20018;-74
2023/06/13 05:07:34;;;;;;;3.50;2.40;;;17.10;68.40;;;;;;5015751;28;20038;-76
2023/06/13 05:10:04;;;;;;;5.07;2.30;;;17.20;67.50;;;;;;5008978;28;20018;-74
2023/06/13 05:12:30;;;;;;;5.07;2.40;;;17.30;66.60;;;;;;5001279;28;20041;-73
2023/06/13 05:14:56;;;;;;;10.57;2.42;;;17.30;67.00;;;;;;5006765;28;20017;-74
2023/06/13 05:17:21;;;;;;;4.07;2.35;;;17.30;68.20;;;;;;5007655;28;20609;-75
2023/06/13 05:19:47;;;;;;;4.22;2.42;;;17.30;67.00;;;;;;5026386;28;20038;-76
2023/06/13 05:22:15;;;;;;;7.95;3.17;;;17.40;67.00;;;;;;5011160;28;20049;-77
2023/06/13 05:24:40;;;;;;;6.72;2.72;;;17.40;66.70;;;;;;5013038;28;20018;-77
2023/06/13 05:27:07;;;;;;;5.45;3.13;;;17.50;66.80;;;;;;5012757;28;20042;-76
2023/06/13 05:29:32;;;;;;;5.53;2.47;;;17.60;65.60;;;;;;5011199;28;20049;-76
2023/06/13 05:31:58;;;;;;;8.75;2.80;;;17.60;65.00;;;;;;5001773;28;20469;-75
2023/06/13 05:34:24;;;;;;;5.60;2.50;;;17.70;64.70;;;;;;5023551;28;20030;-77
2023/06/13 05:36:50;;;;;;;4.20;2.38;;;17.80;64.50;;;;;;5011514;28;20048;-76
2023/06/13 05:39:15;;;;;;;3.63;2.05;;;17.90;64.70;;;;;;5013230;28;20085;-77
2023/06/13 05:41:41;;;;;;;4.85;2.38;;;17.90;63.90;;;;;;5019660;28;20040;-75
2023/06/13 05:44:08;;;;;;;3.95;2.40;;;18.00;62.90;;;;;;5030207;28;20025;-75
2023/06/13 05:46:34;;;;;;;4.20;2.33;;;18.00;63.00;;;;;;5003817;28;20046;-74
2023/06/13 05:48:59;;;;;;;8.57;2.47;;;18.10;63.00;;;;;;5004362;28;20068;-74
2023/06/13 05:51:25;;;;;;;2.72;2.17;;;18.20;62.70;;;;;;5016152;28;20437;-74
2023/06/13 05:53:51;;;;;;;3.75;2.13;;;18.20;63.00;;;;;;5026627;28;20032;-74
2023/06/13 05:56:17;;;;;;;9.45;2.30;;;18.30;62.80;;;;;;5019133;28;20473;-73
2023/06/13 05:58:43;;;;;;;6.75;2.15;;;18.40;62.60;;;;;;5016545;28;20026;-74
2023/06/13 06:01:10;;;;;;;8.70;2.58;;;18.50;62.30;;;;;;5015345;28;20068;-74
2023/06/13 06:03:36;;;;;;;3.83;2.55;;;18.50;61.60;;;;;;5016880;28;20058;-74
2023/06/13 06:06:02;;;;;;;3.75;2.05;;;18.60;61.30;;;;;;5016971;28;20491;-75
2023/06/13 06:08:28;;;;;;;5.75;2.22;;;18.60;61.20;;;;;;5020081;28;20026;-71
2023/06/13 06:10:54;;;;;;;4.88;2.15;;;18.60;61.40;;;;;;5012963;28;20034;-71
2023/06/13 06:13:20;;;;;;;5.35;2.40;;;18.60;60.90;;;;;;5012299;28;20432;-72
2023/06/13 06:15:46;;;;;;;3.83;2.53;;;18.60;61.00;;;;;;5025424;28;20029;-72
2023/06/13 06:18:11;;;;;;;2.95;2.20;;;18.70;61.40;;;;;;5019467;28;20022;-73
2023/06/13 06:20:37;;;;;;;4.80;2.88;;;18.90;61.60;;;;;;5019152;28;20038;-76
2023/06/13 06:23:03;;;;;;;4.28;2.20;;;19.00;60.50;;;;;;5019667;28;20040;-76
2023/06/13 06:25:28;;;;;;;4.90;2.50;;;18.90;59.50;;;;;;5035231;28;20556;-74
2023/06/13 06:27:57;;;;;;;3.97;2.28;;;18.90;59.80;;;;;;5015566;28;20018;-71
2023/06/13 06:30:23;;;;;;;3.35;2.15;;;19.00;60.10;;;;;;5004367;28;20117;-73
2023/06/13 06:32:49;;;;;;;6.22;2.22;;;19.10;59.90;;;;;;5026395;28;20219;-73
2023/06/13 06:35:14;;;;;;;3.70;2.30;;;19.10;60.10;;;;;;5015283;28;20026;-72
2023/06/13 06:37:42;;;;;;;9.13;2.65;;;19.00;59.40;;;;;;5026335;28;20037;-72
2023/06/13 06:40:09;;;;;;;4.97;2.53;;;19.10;59.60;;;;;;5016948;28;20026;-72
2023/06/13 06:42:35;;;;;;;7.43;2.63;;;19.10;59.00;;;;;;5016635;28;20036;-71
2023/06/13 06:45:02;;;;;;;3.92;2.30;;;19.10;58.80;;;;;;5015879;28;20086;-71
2023/06/13 06:47:28;;;;;;;4.63;2.47;;;19.00;58.70;;;;;;5015252;28;20026;-71
2023/06/13 06:49:54;;;;;;;5.80;2.40;;;19.00;58.40;;;;;;5015017;28;20576;-71
2023/06/13 06:52:19;;;;;;;5.05;2.22;;;19.00;58.00;;;;;;5017441;28;20026;-71
2023/06/13 06:54:45;;;;;;;7.68;2.60;;;18.90;58.00;;;;;;5014552;28;20018;-71
2023/06/13 06:57:12;;;;;;;4.72;2.42;;;18.90;58.40;;;;;;5012926;28;20473;-71
2023/06/13 06:59:37;;;;;;;3.60;2.00;;;18.90;58.60;;;;;;5015962;28;20018;-71
2023/06/13 07:02:03;;;;;;;5.40;2.33;;;18.90;58.40;;;;;;5012467;28;20452;-71
2023/06/13 07:04:29;;;;;;;8.23;2.72;;;18.90;58.90;;;;;;5012728;28;20053;-71
2023/06/13 07:06:55;;;;;;;4.72;2.70;;;19.00;58.80;;;;;;5013196;28;20061;-71
2023/06/13 07:09:20;;;;;;;4.40;2.47;;;19.10;59.20;;;;;;5013668;28;20541;-71
2023/06/13 07:11:46;;;;;;;3.70;2.33;;;19.20;58.90;;;;;;5030487;28;20508;-71
2023/06/13 07:14:12;;;;;;;5.95;2.00;;;19.20;58.10;;;;;;5033140;28;20018;-70
2023/06/13 07:16:38;;;;;;;5.75;2.55;;;19.30;58.10;;;;;;5033615;28;20029;-70
2023/06/13 07:19:03;;;;;;;5.72;2.35;;;19.30;58.10;;;;;;5032244;28;20448;-71
2023/06/13 07:21:29;;;;;;;4.35;1.75;;;19.40;58.20;;;;;;5014339;28;20033;-73
2023/06/13 07:23:55;;;;;;;7.03;2.40;;;19.30;57.20;;;;;;5029222;28;20033;-73
2023/06/13 07:26:21;;;;;;;4.38;2.45;;;19.30;56.70;;;;;;5027782;28;20038;-73
2023/06/13 07:28:47;;;;;;;4.03;2.00;;;19.40;56.20;;;;;;5033862;28;20440;-73
2023/06/13 07:31:12;;;;;;;6.47;2.92;;;19.40;56.40;;;;;;5038348;28;20018;-74
2023/06/13 07:33:39;;;;;;;7.97;2.63;;;19.50;56.10;;;;;;5032805;28;20026;-73
2023/06/13 07:36:05;;;;;;;5.57;1.98;;;19.50;55.90;;;;;;5032428;28;20572;-74
2023/06/13 07:38:31;;;;;;;4.53;2.20;;;19.60;56.10;;;;;;5033282;28;20048;-74
2023/06/13 07:40:56;;;;;;;6.28;2.15;;;19.50;56.40;;;;;;5032209;28;20033;-73
2023/06/13 07:43:22;;;;;;;4.30;2.17;;;19.60;56.60;;;;;;5033362;28;20041;-74
2023/06/13 07:45:48;;;;;;;3.50;2.47;;;19.70;56.40;;;;;;5032043;28;20029;-74
2023/06/13 07:48:13;;;;;;;4.35;2.28;;;19.70;55.70;;;;;;5033388;28;20472;-73
2023/06/13 07:50:41;;;;;;;4.55;1.83;;;19.70;56.10;;;;;;5027257;28;20026;-73
2023/06/13 07:53:08;;;;;;;7.30;3.00;;;19.60;54.80;;;;;;5016282;28;20029;-73
2023/06/13 07:55:34;;;;;;;4.80;2.25;;;19.60;54.70;;;;;;5012366;28;20033;-72
2023/06/13 07:58:00;;;;;;;3.83;2.38;;;19.60;54.80;;;;;;5012340;28;20390;-73
2023/06/13 08:00:26;;;;;;;4.00;2.22;;;19.60;54.70;;;;;;5012085;28;20033;-73
2023/06/13 08:02:52;;;;;;;5.22;2.38;;;19.60;54.80;;;;;;5011886;28;20030;-73
2023/06/13 08:05:17;;;;;;;7.03;2.45;;;19.60;55.10;;;;;;5012237;28;20497;-73
2023/06/13 08:07:43;;;;;;;9.25;2.30;;;19.70;54.80;;;;;;5012032;28;20030;-73
2023/06/13 08:10:09;;;;;;;6.30;2.40;;;19.80;54.90;;;;;;5011800;28;20064;-73
2023/06/13 08:12:34;;;;;;;5.93;2.22;;;19.80;54.80;;;;;;5011411;28;20037;-72
2023/06/13 08:15:01;;;;;;;8.45;2.08;;;19.90;55.00;;;;;;5011915;28;20018;-73
2023/06/13 08:17:26;;;;;;;3.95;2.22;;;20.00;54.90;;;;;;5011429;28;20052;-73
2023/06/13 08:19:52;;;;;;;4.65;2.55;;;20.00;54.00;;;;;;5011788;28;20022;-72
2023/06/13 08:22:18;;;;;;;6.30;2.30;;;20.00;53.20;;;;;;5011829;28;20124;-73
2023/06/13 08:24:44;;;;;;;3.40;2.55;;;20.10;53.60;;;;;;5011855;28;20485;-73
2023/06/13 08:27:10;;;;;;;9.88;2.40;;;20.10;53.80;;;;;;5012198;28;20143;-73
2023/06/13 08:29:36;;;;;;;6.13;2.42;;;20.20;53.50;;;;;;5011838;28;20101;-73
2023/06/13 08:32:02;;;;;;;9.10;2.75;;;20.20;54.00;;;;;;5011705;28;20488;-73
2023/06/13 08:34:28;;;;;;;3.80;2.33;;;20.30;52.50;;;;;;5011473;28;20492;-74
2023/06/13 08:36:54;;;;;;;4.32;1.92;;;20.40;52.20;;;;;;5011371;28;20030;-73
2023/06/13 08:39:20;;;;;;;3.88;2.70;;;20.40;52.30;;;;;;5011545;28;20030;-74
2023/06/13 08:41:46;;;;;;;8.68;1.95;;;20.50;52.30;;;;;;5010248;28;20503;-73
2023/06/13 08:44:12;;;;;;;4.97;2.40;;;20.50;52.00;;;;;;5010433;28;20022;-74
2023/06/13 08:46:38;;;;;;;2.90;1.83;;;20.60;51.70;;;;;;5011753;28;20542;-73
2023/06/13 08:49:05;;;;;;;5.13;3.05;;;20.60;52.40;;;;;;5011472;28;20022;-73
2023/06/13 08:51:31;;;;;;;5.55;2.50;;;20.60;52.80;;;;;;5011347;28;20030;-73
2023/06/13 08:54:02;;;;;;;5.28;2.80;;;20.70;53.20;;;;;;5011396;28;20099;-74
2023/06/13 08:56:31;;;;;;;4.95;2.53;;;20.70;53.20;;;;;;5011211;28;20425;-75
2023/06/13 08:59:04;;;;;;;3.75;2.33;;;20.60;53.50;;;;;;5010043;28;20018;-74
2023/06/13 09:01:30;;;;;;;4.35;2.45;;;20.60;54.00;;;;;;5011408;28;20038;-74
2023/06/13 09:03:59;;;;;;;6.22;2.60;;;20.70;54.20;;;;;;5011509;28;20030;-75
2023/06/13 09:06:24;;;;;;;11.05;3.33;;;20.80;54.30;;;;;;5011742;28;20030;-73
2023/06/13 09:08:53;;;;;;;8.80;2.67;;;20.90;53.80;;;;;;5010040;28;20034;-73
2023/06/13 09:11:20;;;;;;;8.15;2.85;;;21.10;55.30;;;;;;5004642;28;20037;-75
2023/06/13 09:13:47;;;;;;;5.03;2.38;;;21.10;54.30;;;;;;5003179;28;20069;-77
2023/06/13 09:16:13;;;;;;;5.28;2.45;;;21.10;55.40;;;;;;5006522;28;20493;-72
2023/06/13 09:18:42;;;;;;;6.75;2.67;;;21.20;53.90;;;;;;4991510;28;20069;-73
2023/06/13 09:21:09;;;;;;;8.52;2.38;;;21.20;52.30;;;;;;4991264;28;20084;-72
2023/06/13 09:23:35;;;;;;;6.93;2.78;;;21.10;51.80;;;;;;4992482;28;20074;-72
2023/06/13 09:26:02;;;;;;;5.63;2.60;;;21.10;52.00;;;;;;4995494;28;20061;-73
2023/06/13 09:28:33;;;;;;;5.28;2.95;;;21.20;51.60;;;;;;4995158;28;20468;-73
2023/06/13 09:30:59;;;;;;;7.78;2.80;;;21.20;52.00;;;;;;5010251;28;20022;-73
2023/06/13 09:33:25;;;;;;;6.20;2.60;;;21.10;51.10;;;;;;4995270;28;20025;-73
2023/06/13 09:35:51;;;;;;;4.85;2.10;;;21.20;51.20;;;;;;4994856;28;20023;-74
2023/06/13 09:38:23;;;;;;;5.60;2.60;;;21.20;50.80;;;;;;4995320;28;20417;-73
2023/06/13 09:40:54;;;;;;;6.13;3.05;;;21.10;50.80;;;;;;5010287;28;20375;-73
2023/06/13 09:43:21;;;;;;;5.28;2.78;;;21.10;50.70;;;;;;4994924;28;20109;-73
2023/06/13 09:45:48;;;;;;;4.25;2.88;;;21.10;50.20;;;;;;5001793;28;20153;-73
2023/06/13 09:48:14;;;;;;;3.25;2.38;;;21.00;51.80;;;;;;5018122;28;20081;-73
2023/06/13 09:50:43;;;;;;;7.40;2.50;;;21.20;51.20;;;;;;5011740;28;20121;-75
2023/06/13 09:53:09;;;;;;;3.83;2.40;;;21.30;51.20;;;;;;5010467;28;20104;-74
2023/06/13 09:55:35;;;;;;;6.95;2.30;;;21.40;48.70;;;;;;4995752;28;20027;-73
2023/06/13 09:58:02;;;;;;;12.48;2.50;;;21.40;47.90;;;;;;4994688;28;20026;-75
2023/06/13 10:00:28;;;;;;;6.78;2.28;;;21.40;48.10;;;;;;4994757;28;20499;-73
2023/06/13 10:02:54;;;;;;;4.70;2.20;;;21.50;47.10;;;;;;5000333;28;20627;-73
2023/06/13 10:05:21;;;;;;;5.60;2.88;;;21.60;46.80;;;;;;5014453;28;20121;-72
2023/06/13 10:07:46;;;;;;;10.57;2.80;;;21.60;47.00;;;;;;5028487;28;20372;-72
2023/06/13 10:10:12;;;;;;;6.00;2.63;;;21.50;47.60;;;;;;5007716;28;20121;-74
2023/06/13 10:12:45;;;;;;;5.18;2.58;;;21.50;48.00;;;;;;5019952;28;20030;-73
2023/06/13 10:15:14;;;;;;;6.22;2.80;;;21.50;48.20;;;;;;5014525;28;20468;-73
2023/06/13 10:17:42;;;;;;;5.82;3.05;;;21.50;47.50;;;;;;5010785;28;20049;-73
2023/06/13 10:20:11;;;;;;;8.18;2.47;;;21.50;47.50;;;;;;5013994;28;20030;-73
2023/06/13 10:22:40;;;;;;;4.15;2.60;;;21.50;47.60;;;;;;5014536;28;20056;-72
2023/06/13 10:25:11;;;;;;;4.78;2.45;;;21.50;47.30;;;;;;5005514;28;20030;-72
2023/06/13 10:27:40;;;;;;;9.30;2.55;;;21.60;46.60;;;;;;5016707;28;20028;-73
2023/06/13 10:30:21;;;;;;;4.28;2.63;;;21.70;47.10;;;;;;5001799;28;20033;-73
2023/06/13 10:32:56;;;;;;;5.30;2.67;;;21.80;46.80;;;;;;5010781;28;20038;-73
2023/06/13 10:35:48;;;;;;;6.13;3.03;;;21.80;46.60;;;;;;5011214;28;20026;-73
2023/06/13 10:38:43;;;;;;;3.92;2.10;;;22.00;46.70;;;;;;5008235;28;20476;-73
2023/06/13 10:41:40;;;;;;;5.95;3.08;;;22.00;46.20;;;;;;5005643;28;20052;-73
2023/06/13 10:44:13;;;;;;;8.95;3.10;;;22.00;45.20;;;;;;5008394;28;20022;-73
2023/06/13 10:46:39;;;;;;;4.30;2.78;;;22.10;45.50;;;;;;5007516;28;20103;-73
2023/06/13 10:49:04;;;;;;;6.30;2.85;;;22.10;46.00;;;;;;5007861;28;20101;-69
2023/06/13 10:51:32;;;;;;;7.10;2.53;;;22.20;45.00;;;;;;5008744;28;20033;-71
2023/06/13 10:54:03;;;;;;;5.47;3.00;;;22.30;44.40;;;;;;5009247;28;20504;-72
2023/06/13 10:56:33;;;;;;;4.15;2.60;;;22.30;44.60;;;;;;5002123;28;20030;-68
2023/06/13 10:59:07;;;;;;;5.78;2.38;;;22.30;44.10;;;;;;5002574;28;20026;-70
2023/06/13 11:01:34;;;;;;;;;;;22.40;44.50;;;;;;4999808;28;20038;-69
2023/06/13 11:04:11;;;;;;;6.35;2.55;;;22.40;44.80;;;;;;5006063;28;19917;-70
2023/06/13 11:06:40;;;;;;;6.82;3.05;;;22.50;44.70;;;;;;4999846;28;20153;-69
2023/06/13 11:09:22;;;;;;;6.80;2.75;;;22.50;44.90;;;;;;5000940;28;20033;-69
2023/06/13 11:11:54;;;;;;;4.38;2.20;;;22.60;44.60;;;;;;4999438;28;20033;-70
2023/06/13 11:14:41;;;;;;;4.22;2.60;;;22.50;44.70;;;;;;5011408;28;20018;-71
2023/06/13 11:17:07;;;;;;;6.22;3.20;;;22.50;45.70;;;;;;5004034;28;20018;-70
2023/06/13 11:19:34;;;;;;;7.15;3.08;;;22.50;45.80;;;;;;5009286;28;20469;-71
2023/06/13 11:21:59;;;;;;;3.13;2.22;;;22.50;46.70;;;;;;5003789;28;21241;-70
2023/06/13 11:24:32;;;;;;;6.82;2.53;;;22.50;46.80;;;;;;5007493;28;20112;-70
2023/06/13 11:27:03;;;;;;;3.65;2.83;;;22.50;47.00;;;;;;5007748;28;20037;-70
2023/06/13 11:29:30;;;;;;;7.68;3.35;;;22.50;47.20;;;;;;5009132;28;20346;-70
2023/06/13 11:31:56;;;;;;;7.43;2.70;;;22.60;44.00;;;;;;5004450;28;20026;-70
2023/06/13 11:34:31;;;;;;;3.72;2.38;;;22.60;42.90;;;;;;5001783;28;20377;-71
2023/06/13 11:37:07;;;;;;;3.33;2.13;;;22.70;43.30;;;;;;5006952;28;20017;-72
2023/06/13 11:39:40;;;;;;;5.75;2.80;;;22.70;44.00;;;;;;5000710;28;20030;-72
2023/06/13 11:42:08;;;;;;;9.57;3.15;;;22.80;45.00;;;;;;5003895;28;20385;-72
2023/06/13 11:44:35;;;;;;;5.20;2.40;;;22.80;45.20;;;;;;5005107;28;20440;-72
2023/06/13 11:47:00;;;;;;;10.43;2.70;;;22.80;45.50;;;;;;5002021;28;20030;-71
2023/06/13 11:49:26;;;;;;;10.07;3.20;;;22.90;45.70;;;;;;5007887;28;20091;-71
2023/06/13 11:51:52;;;;;;;7.35;3.33;;;22.80;45.70;;;;;;5001969;28;20072;-71
2023/06/13 11:54:26;;;;;;;10.55;2.80;;;22.80;46.30;;;;;;5003527;28;20077;-70
2023/06/13 11:56:53;;;;;;;9.10;3.00;;;22.90;46.60;;;;;;5001584;28;20040;-71
2023/06/13 11:59:20;;;;;;;6.40;2.72;;;22.90;46.00;;;;;;5002715;28;20026;-70
2023/06/13 12:01:52;;;;;;;5.35;3.08;;;22.90;45.60;;;;;;5003609;28;20041;-71
2023/06/13 12:04:25;;;;;;;3.58;2.95;;;22.90;45.20;;;;;;5008159;28;20045;-71
2023/06/13 12:06:52;;;;;;;4.50;2.33;;;23.00;45.00;;;;;;5007845;28;20895;-71
2023/06/13 12:09:18;;;;;;;4.55;2.83;;;23.20;44.70;;;;;;5005155;28;20037;-71
2023/06/13 12:11:45;;;;;;;5.68;2.60;;;23.20;45.30;;;;;;5001743;28;20096;-71
2023/06/13 12:14:11;;;;;;;6.05;2.53;;;23.40;45.70;;;;;;5004573;28;20067;-72
2023/06/13 12:16:38;;;;;;;4.75;2.40;;;23.40;45.90;;;;;;5016819;28;20481;-70
2023/06/13 12:19:06;;;;;;;6.72;2.85;;;23.50;45.60;;;;;;5003842;28;20159;-71
2023/06/13 12:21:36;;;;;;;5.47;3.15;;;23.60;45.80;;;;;;5001055;28;20030;-72
2023/06/13 12:24:08;;;;;;;6.07;2.78;;;23.50;43.70;;;;;;5004795;28;20101;-69
2023/06/13 12:26:40;;;;;;;4.47;3.00;;;23.50;44.10;;;;;;4999183;28;20087;-73
2023/06/13 12:29:07;;;;;;;6.95;3.15;;;23.40;44.80;;;;;;5001637;28;20519;-70
2023/06/13 12:31:38;;;;;;;8.43;3.50;;;23.40;44.70;;;;;;5011434;28;20477;-71
2023/06/13 12:34:14;;;;;;;4.05;2.80;;;23.40;45.10;;;;;;5003257;28;20027;-71
2023/06/13 12:36:44;;;;;;;8.68;2.83;;;23.50;44.50;;;;;;5005593;28;20033;-71
2023/06/13 12:39:17;;;;;;;7.97;3.03;;;23.40;45.00;;;;;;5003893;28;20029;-70
2023/06/13 12:41:45;;;;;;;5.15;3.17;;;23.40;45.20;;;;;;5002917;28;20423;-70
2023/06/13 12:44:11;;;;;;;3.70;2.67;;;23.40;45.20;;;;;;5002906;28;20030;-71
2023/06/13 12:46:40;;;;;;;6.20;2.97;;;23.40;44.70;;;;;;5017361;28;20028;-75
2023/06/13 12:49:19;;;;;;;6.47;3.00;;;23.50;44.30;;;;;;5035573;28;20073;-70
2023/06/13 12:51:48;;;;;;;6.60;3.35;;;23.60;44.50;;;;;;4999171;28;20033;-70